Time;durP1;ratioP1;P1;durP2;ratioP2;P2;SDS_P1;SDS_P2;PMS_P1;PMS_P2;Temp;Humidity;BMP_temperature;BMP_pressure;BME280_temperature;BME280_humidity;BME280_pressure;Samples;Min_cycle;Max_cycle;Signal;HPM_P1;HPM_P2
2023/03/02 00:04:57;;;;;;;0.20;0.20;;;0.00;99.90;;;;;;5141785;27;20109;-88
2023/03/02 00:07:30;;;;;;;0.10;0.10;;;0.00;99.90;;;;;;5143269;27;20023;-88
2023/03/02 00:09:56;;;;;;;0.10;0.10;;;;;;;;;;5141793;27;20127;-87
2023/03/02 00:12:22;;;;;;;0.10;0.10;;;;;;;;;;5146215;27;20640;-89
2023/03/02 00:14:48;;;;;;;0.10;0.10;;;-0.10;99.90;;;;;;5148529;27;20108;-89
2023/03/02 00:17:14;;;;;;;0.10;0.10;;;;;;;;;;5146245;27;20023;-88
2023/03/02 00:19:39;;;;;;;0.10;0.10;;;-0.20;99.90;;;;;;5145112;27;20601;-87
2023/03/02 00:22:05;;;;;;;0.10;0.10;;;-0.20;99.90;;;;;;5141180;27;20030;-86
2023/03/02 00:24:31;;;;;;;0.10;0.10;;;;;;;;;;5138224;27;20392;-88
2023/03/02 00:26:57;;;;;;;0.10;0.10;;;-0.30;99.90;;;;;;5149670;27;20026;-88
2023/03/02 00:29:22;;;;;;;0.10;0.10;;;;;;;;;;5141515;27;20072;-89
2023/03/02 00:31:48;;;;;;;0.10;0.10;;;-0.40;99.90;;;;;;5145869;27;20026;-89
2023/03/02 00:37:12;;;;;;;0.10;0.10;;;-0.30;99.90;;;;;;5098722;22;20053;-87
2023/03/02 00:39:53;;;;;;;0.10;0.10;;;;;;;;;;5045506;28;20064;-87
2023/03/02 00:48:04;;;;;;;0.10;0.10;;;-0.30;99.90;;;;;;5023926;22;20069;-87
2023/03/02 00:50:39;;;;;;;0.10;0.10;;;-0.40;99.90;;;;;;4996554;28;20042;-87
2023/03/02 00:53:19;;;;;;;0.10;0.10;;;-0.50;99.90;;;;;;4991057;28;20035;-86
2023/03/02 00:55:53;;;;;;;0.10;0.10;;;-0.40;99.90;;;;;;4987374;28;20038;-87
2023/03/02 00:58:30;;;;;;;0.10;0.10;;;-0.40;99.90;;;;;;4991879;28;20125;-86
2023/03/02 08:36:59;;;;;;;0.10;0.10;;;;;;;;;;5150258;27;20978;-88
2023/03/02 08:39:29;;;;;;;0.10;0.10;;;;;;;;;;5135663;27;20050;-88
2023/03/02 08:41:55;;;;;;;0.10;0.10;;;;;;;;;;5157098;27;20072;-88
2023/03/02 08:47:16;;;;;;;0.08;0.08;;;1.70;99.90;;;;;;5511184;22;20056;-86
2023/03/02 08:52:27;;;;;;;0.10;0.10;;;;;;;;;;5078723;28;20097;-87
2023/03/02 08:57:40;;;;;;;0.10;0.10;;;1.30;99.90;;;;;;5366764;22;20074;-89
2023/03/02 09:00:08;;;;;;;0.10;0.10;;;1.00;99.90;;;;;;5060335;28;20047;-88
2023/03/02 09:02:34;;;;;;;0.10;0.10;;;;;;;;;;5057135;28;20017;-88
2023/03/02 09:04:59;;;;;;;0.05;0.05;;;;;;;;;;5056080;28;20034;-89
2023/03/02 09:12:54;;;;;;;0.10;0.10;;;;;;;;;;6155036;22;20038;-85
2023/03/02 10:33:47;;;;;;;0.10;0.10;;;1.00;99.90;;;;;;5185460;22;20065;-87
2023/03/02 11:03:18;;;;;;;0.10;0.10;;;1.30;99.90;;;;;;5948677;22;20436;-87
2023/03/02 11:05:44;;;;;;;0.10;0.10;;;1.40;99.90;;;;;;5046359;28;20101;-90
2023/03/02 11:08:17;;;;;;;0.10;0.10;;;1.70;99.90;;;;;;5047985;28;20488;-90
2023/03/02 11:13:36;;;;;;;0.00;0.00;;;1.80;99.90;;;;;;5144601;22;20052;-89
2023/03/02 11:22:25;;;;;;;;;;;2.20;99.90;;;;;;5066757;22;20748;-86
2023/03/02 11:24:54;;;;;;;0.10;0.10;;;2.30;99.90;;;;;;5013911;28;19912;-88
2023/03/02 11:30:21;;;;;;;0.05;0.05;;;2.40;99.90;;;;;;5101612;22;20048;-88
2023/03/02 11:32:51;;;;;;;0.10;0.10;;;2.50;99.90;;;;;;5035560;28;20029;-88
2023/03/02 11:35:39;;;;;;;0.10;0.10;;;2.50;99.90;;;;;;5022946;28;20036;-88
2023/03/02 11:38:25;;;;;;;0.10;0.10;;;2.50;99.90;;;;;;5024172;28;20025;-88
2023/03/02 11:40:56;;;;;;;0.10;0.10;;;2.60;99.90;;;;;;5023970;28;20028;-88
2023/03/02 11:43:21;;;;;;;0.10;0.10;;;2.70;99.90;;;;;;5031060;28;20040;-89
2023/03/02 11:46:18;;;;;;;0.10;0.10;;;2.80;99.90;;;;;;5045689;28;20040;-88
2023/03/02 11:48:48;;;;;;;0.10;0.10;;;2.90;99.90;;;;;;5040661;28;20153;-89
2023/03/02 11:51:15;;;;;;;0.10;0.10;;;2.90;99.90;;;;;;5026073;28;20025;-88
2023/03/02 11:54:28;;;;;;;0.10;0.10;;;3.10;99.90;;;;;;5029641;28;20026;-89
2023/03/02 11:56:54;;;;;;;0.10;0.10;;;;;;;;;;5028941;28;21353;-88
2023/03/02 11:59:21;;;;;;;0.00;0.00;;;3.00;99.90;;;;;;5029592;28;20021;-87
2023/03/02 12:01:51;;;;;;;0.05;0.05;;;3.10;99.90;;;;;;5028377;28;20505;-89
2023/03/02 12:04:33;;;;;;;0.10;0.10;;;3.00;99.90;;;;;;5029528;28;20040;-88
2023/03/02 12:07:21;;;;;;;0.10;0.10;;;3.20;99.90;;;;;;5046135;28;20029;-88
2023/03/02 12:10:00;;;;;;;0.10;0.10;;;3.30;99.90;;;;;;5034531;28;20094;-88
2023/03/02 12:12:39;;;;;;;0.10;0.10;;;3.30;99.90;;;;;;5024828;28;20037;-88
2023/03/02 12:15:41;;;;;;;0.05;0.05;;;3.40;99.90;;;;;;5031679;28;20111;-88
2023/03/02 12:18:22;;;;;;;0.10;0.10;;;3.50;99.90;;;;;;5033386;28;20044;-91
2023/03/02 12:21:07;;;;;;;0.10;0.10;;;3.70;99.90;;;;;;5031816;28;20488;-89
2023/03/02 12:23:39;;;;;;;0.10;0.10;;;3.70;99.90;;;;;;5027485;28;20029;-89
2023/03/02 12:26:25;;;;;;;0.10;0.10;;;3.70;99.90;;;;;;5018345;28;20033;-90
2023/03/02 12:29:21;;;;;;;0.10;0.10;;;3.70;99.90;;;;;;5028791;28;20032;-89
2023/03/02 12:31:53;;;;;;;0.10;0.10;;;3.80;99.90;;;;;;5027889;28;20447;-89
2023/03/02 12:34:38;;;;;;;0.10;0.10;;;3.80;99.90;;;;;;5042604;28;20021;-91
2023/03/02 12:37:13;;;;;;;0.10;0.10;;;3.80;99.90;;;;;;5026983;28;20024;-89
2023/03/02 12:40:24;;;;;;;0.10;0.10;;;3.80;99.90;;;;;;5025012;28;20083;-89
2023/03/02 12:43:17;;;;;;;0.10;0.10;;;3.90;99.90;;;;;;5025695;28;20120;-90
2023/03/02 12:45:58;;;;;;;0.10;0.10;;;4.00;99.90;;;;;;5040963;28;20036;-89
2023/03/02 12:48:40;;;;;;;0.08;0.08;;;4.00;99.90;;;;;;5030287;28;20524;-90
2023/03/02 12:51:15;;;;;;;0.10;0.10;;;4.10;99.90;;;;;;5027452;28;20033;-91
2023/03/02 12:53:41;;;;;;;0.10;0.10;;;;;;;;;;5044076;28;20028;-90
2023/03/02 12:56:07;;;;;;;0.08;0.08;;;4.10;99.90;;;;;;5027443;28;20584;-90
2023/03/02 12:58:33;;;;;;;0.10;0.10;;;;;;;;;;5039394;28;20513;-89
2023/03/02 13:01:01;;;;;;;0.10;0.10;;;4.30;99.90;;;;;;5029252;28;20032;-89
2023/03/02 13:03:29;;;;;;;0.10;0.10;;;4.20;99.90;;;;;;5026508;28;20037;-90
2023/03/02 13:06:03;;;;;;;0.00;0.00;;;4.50;99.90;;;;;;5029423;28;20049;-89
2023/03/02 13:08:30;;;;;;;0.10;0.10;;;4.50;99.90;;;;;;5029406;28;20035;-90
2023/03/02 13:10:59;;;;;;;0.10;0.10;;;4.40;99.90;;;;;;5028214;28;20053;-89
2023/03/02 13:13:37;;;;;;;0.05;0.05;;;4.10;99.90;;;;;;5028503;28;20033;-89
2023/03/02 13:16:06;;;;;;;0.10;0.10;;;4.50;99.90;;;;;;5030705;28;20036;-88
2023/03/02 13:18:35;;;;;;;0.10;0.10;;;4.50;99.90;;;;;;5032981;28;20033;-89
2023/03/02 13:21:02;;;;;;;0.10;0.10;;;4.40;99.90;;;;;;5048124;28;20040;-89
2023/03/02 13:23:30;;;;;;;0.10;0.10;;;4.30;99.90;;;;;;5043533;28;20037;-87
2023/03/02 13:25:58;;;;;;;0.10;0.10;;;4.20;99.90;;;;;;5035904;28;20032;-90
2023/03/02 13:28:35;;;;;;;0.10;0.10;;;4.20;99.90;;;;;;5039264;28;20029;-91
2023/03/02 13:31:19;;;;;;;0.10;0.10;;;4.50;99.90;;;;;;5047291;28;20447;-89
2023/03/02 13:33:47;;;;;;;0.10;0.10;;;4.50;99.90;;;;;;5034163;28;20481;-90
2023/03/02 13:36:27;;;;;;;0.10;0.10;;;4.50;99.90;;;;;;5034121;28;20032;-90
2023/03/02 13:38:54;;;;;;;;;;;4.60;99.90;;;;;;5026216;28;20540;-89
2023/03/02 13:41:28;;;;;;;0.00;0.00;;;4.60;99.90;;;;;;5052104;28;20091;-88
2023/03/02 13:43:54;;;;;;;0.10;0.10;;;4.70;99.90;;;;;;5035700;28;20021;-89
2023/03/02 13:46:19;;;;;;;0.10;0.10;;;4.80;99.90;;;;;;5040832;28;20022;-88
2023/03/02 13:49:01;;;;;;;0.10;0.10;;;4.80;99.90;;;;;;5032841;28;20104;-88
2023/03/02 13:51:31;;;;;;;0.10;0.10;;;4.80;99.90;;;;;;5030250;28;20029;-89
2023/03/02 13:54:01;;;;;;;0.10;0.10;;;4.80;99.90;;;;;;5044832;28;20033;-88
2023/03/02 13:56:33;;;;;;;0.10;0.10;;;4.80;99.90;;;;;;5028750;28;21554;-90
2023/03/02 13:59:01;;;;;;;0.10;0.10;;;4.70;99.90;;;;;;5026897;28;20393;-88
2023/03/02 14:01:27;;;;;;;0.10;0.10;;;;;;;;;;5029849;28;20036;-89
2023/03/02 14:03:53;;;;;;;0.10;0.10;;;;;;;;;;5051065;28;20551;-88
2023/03/02 14:06:19;;;;;;;0.00;0.00;;;;;;;;;;5045921;28;20028;-89
2023/03/02 14:08:45;;;;;;;0.00;0.00;;;4.60;99.90;;;;;;5026328;28;20024;-89
2023/03/02 14:11:14;;;;;;;0.10;0.10;;;4.60;99.90;;;;;;5031812;28;20048;-89
2023/03/02 14:13:42;;;;;;;0.10;0.10;;;4.60;99.90;;;;;;5032072;28;20017;-89
2023/03/02 14:16:16;;;;;;;0.10;0.10;;;4.60;99.90;;;;;;5032521;28;20519;-90
2023/03/02 14:18:47;;;;;;;0.08;0.08;;;4.70;99.90;;;;;;5030013;28;20045;-88
2023/03/02 14:21:19;;;;;;;0.03;0.03;;;4.70;99.90;;;;;;5028905;28;20039;-88
2023/03/02 14:23:45;;;;;;;0.10;0.10;;;4.70;99.90;;;;;;5041146;28;20496;-88
2023/03/02 14:26:17;;;;;;;0.10;0.10;;;4.70;99.90;;;;;;5033894;28;20135;-90
2023/03/02 14:28:43;;;;;;;0.10;0.10;;;;;;;;;;5030140;28;20027;-89
2023/03/02 14:31:09;;;;;;;0.10;0.10;;;;;;;;;;5029917;28;20021;-90
2023/03/02 14:33:35;;;;;;;0.00;0.00;;;4.90;99.90;;;;;;5052828;28;20029;-90
2023/03/02 14:36:02;;;;;;;0.10;0.10;;;5.00;99.90;;;;;;5038353;28;20067;-92
2023/03/02 14:38:28;;;;;;;0.10;0.10;;;;;;;;;;5030028;28;20033;-89
2023/03/02 14:40:54;;;;;;;0.20;0.20;;;;;;;;;;5037073;28;20124;-89
2023/03/02 14:43:22;;;;;;;0.10;0.10;;;;;;;;;;5036845;28;20090;-90
2023/03/02 14:45:48;;;;;;;0.10;0.10;;;;;;;;;;5035866;28;20029;-90
2023/03/02 14:48:14;;;;;;;0.10;0.10;;;;;;;;;;5037692;28;20033;-88
2023/03/02 14:50:45;;;;;;;0.10;0.10;;;4.90;99.90;;;;;;5033192;28;20028;-90
2023/03/02 14:53:17;;;;;;;0.10;0.10;;;4.80;99.90;;;;;;5029402;28;20020;-90
2023/03/02 14:55:43;;;;;;;0.10;0.10;;;;;;;;;;5046579;28;20037;-89
2023/03/02 14:58:15;;;;;;;0.10;0.10;;;4.80;99.90;;;;;;5027863;28;20040;-89
2023/03/02 15:00:42;;;;;;;0.10;0.10;;;;;;;;;;5033674;28;20033;-89
2023/03/02 15:03:13;;;;;;;0.10;0.10;;;4.80;99.90;;;;;;5033918;28;20068;-89
2023/03/02 15:05:39;;;;;;;0.00;0.00;;;6.50;99.90;;;;;;5038848;28;20048;-89
2023/03/02 15:08:05;;;;;;;0.05;0.05;;;;;;;;;;5036348;28;20034;-91
2023/03/02 15:10:31;;;;;;;0.10;0.10;;;;;;;;;;5047682;28;20041;-89
2023/03/02 15:12:57;;;;;;;0.10;0.10;;;;;;;;;;5038396;28;20489;-89
2023/03/02 15:15:23;;;;;;;0.10;0.10;;;4.80;99.90;;;;;;5032681;28;20029;-89
2023/03/02 15:17:49;;;;;;;0.08;0.08;;;;;;;;;;5032785;28;20112;-90
2023/03/02 15:20:15;;;;;;;0.08;0.08;;;;;;;;;;5030032;28;20525;-90
2023/03/02 15:22:41;;;;;;;0.10;0.10;;;;;;;;;;5028090;28;20033;-90
2023/03/02 15:25:08;;;;;;;0.10;0.10;;;4.30;99.90;;;;;;5056188;28;20047;-90
2023/03/02 15:27:34;;;;;;;0.10;0.10;;;;;;;;;;5015876;28;20040;-90
2023/03/02 15:29:59;;;;;;;0.08;0.08;;;4.20;99.90;;;;;;5048110;28;20033;-91
2023/03/02 15:32:25;;;;;;;0.08;0.08;;;;;;;;;;5031709;28;20075;-88
2023/03/02 15:34:51;;;;;;;0.10;0.10;;;4.10;99.90;;;;;;5026381;28;20564;-89
2023/03/02 15:37:17;;;;;;;0.10;0.10;;;;;;;;;;5028533;28;20064;-91
2023/03/02 15:39:43;;;;;;;0.10;0.10;;;4.10;99.90;;;;;;5028903;28;20029;-88
2023/03/02 15:42:09;;;;;;;0.10;0.10;;;;;;;;;;5030935;28;20033;-89
2023/03/02 15:44:35;;;;;;;0.10;0.10;;;;;;;;;;5027566;28;20033;-90
2023/03/02 15:47:01;;;;;;;0.10;0.10;;;3.80;99.90;;;;;;5031685;28;20021;-90
2023/03/02 15:49:28;;;;;;;0.10;0.10;;;3.80;99.90;;;;;;5035087;28;20033;-89
2023/03/02 15:51:57;;;;;;;0.10;0.10;;;3.80;99.90;;;;;;5030118;28;20040;-91
2023/03/02 15:54:24;;;;;;;0.10;0.10;;;3.80;99.90;;;;;;5023475;28;20482;-90
2023/03/02 15:56:53;;;;;;;0.10;0.10;;;;;;;;;;5032333;28;20056;-89
2023/03/02 15:59:23;;;;;;;0.10;0.10;;;3.60;99.90;;;;;;5044226;28;20040;-88
2023/03/02 16:01:49;;;;;;;0.10;0.10;;;;;;;;;;5029176;28;20025;-90
2023/03/02 16:04:15;;;;;;;0.10;0.10;;;;;;;;;;5038745;28;20048;-87
2023/03/02 16:06:41;;;;;;;0.00;0.00;;;;;;;;;;5036239;28;20134;-90
2023/03/02 16:09:07;;;;;;;0.10;0.10;;;;;;;;;;5024517;28;20531;-90
2023/03/02 16:11:33;;;;;;;0.03;0.03;;;;;;;;;;5026573;28;20397;-91
2023/03/02 16:13:59;;;;;;;0.10;0.10;;;;;;;;;;5041402;28;20036;-91
2023/03/02 16:16:25;;;;;;;0.10;0.10;;;;;;;;;;5032831;28;20108;-89
2023/03/02 16:18:56;;;;;;;0.10;0.10;;;3.30;99.90;;;;;;5031104;28;20688;-88
2023/03/02 16:21:23;;;;;;;0.10;0.10;;;3.10;99.90;;;;;;5048442;28;20059;-90
2023/03/02 16:23:48;;;;;;;0.00;0.00;;;3.10;99.90;;;;;;5034996;28;20029;-88
2023/03/02 16:26:17;;;;;;;0.00;0.00;;;3.00;99.90;;;;;;5030530;28;20044;-89
2023/03/02 16:28:43;;;;;;;0.00;0.00;;;3.00;99.90;;;;;;5031804;28;20025;-89
2023/03/02 16:31:12;;;;;;;0.10;0.10;;;3.00;99.90;;;;;;5030465;28;20017;-89
2023/03/02 16:33:39;;;;;;;0.10;0.10;;;2.90;99.90;;;;;;5027380;28;20077;-89
2023/03/02 16:36:05;;;;;;;0.10;0.10;;;2.90;99.90;;;;;;5032473;28;20112;-89
2023/03/02 16:38:30;;;;;;;0.10;0.10;;;2.80;99.90;;;;;;5028328;28;20116;-90
2023/03/02 16:40:56;;;;;;;0.10;0.10;;;;;;;;;;5030774;28;20047;-88
2023/03/02 16:43:23;;;;;;;0.10;0.10;;;;;;;;;;5028024;28;20131;-88
2023/03/02 16:45:52;;;;;;;0.00;0.00;;;2.80;99.90;;;;;;5032336;28;20032;-91
2023/03/02 16:48:18;;;;;;;0.10;0.10;;;2.70;99.90;;;;;;5049184;28;20032;-89
2023/03/02 16:50:43;;;;;;;0.10;0.10;;;2.60;99.90;;;;;;5041788;28;20025;-89
2023/03/02 16:53:09;;;;;;;0.10;0.10;;;2.70;99.90;;;;;;5032205;28;20401;-90
2023/03/02 16:55:35;;;;;;;0.03;0.03;;;2.70;99.90;;;;;;5031260;28;20032;-89
2023/03/02 16:58:00;;;;;;;0.10;0.10;;;2.70;99.90;;;;;;5056804;28;20044;-88
2023/03/02 17:00:26;;;;;;;0.10;0.10;;;2.80;99.90;;;;;;5033681;28;20036;-89
2023/03/02 17:02:53;;;;;;;0.03;0.03;;;;;;;;;;5038206;28;20029;-89
2023/03/02 17:05:20;;;;;;;0.10;0.10;;;2.90;99.90;;;;;;5049030;28;20072;-90
2023/03/02 17:07:46;;;;;;;0.10;0.10;;;2.90;99.90;;;;;;5034173;28;20040;-89
2023/03/02 17:10:15;;;;;;;0.10;0.10;;;2.90;99.90;;;;;;5037276;28;20052;-89
2023/03/02 17:12:41;;;;;;;0.10;0.10;;;;;;;;;;5029228;28;20118;-89
2023/03/02 17:15:08;;;;;;;0.00;0.00;;;3.00;99.90;;;;;;5039520;28;20029;-88
2023/03/02 17:17:34;;;;;;;0.05;0.05;;;;;;;;;;5041771;28;20033;-89
2023/03/02 17:19:59;;;;;;;0.10;0.10;;;2.90;99.90;;;;;;5039734;28;20025;-89
2023/03/02 17:22:25;;;;;;;0.05;0.05;;;;;;;;;;5034524;28;20119;-89
2023/03/02 17:24:51;;;;;;;0.03;0.03;;;;;;;;;;5039581;28;20171;-89
2023/03/02 17:27:17;;;;;;;0.03;0.03;;;2.70;99.90;;;;;;5046925;28;20060;-88
2023/03/02 17:29:43;;;;;;;0.10;0.10;;;;;;;;;;5036640;28;20091;-89
